Time;durP1;ratioP1;P1;durP2;ratioP2;P2;SDS_P1;SDS_P2;PMS_P1;PMS_P2;Temp;Humidity;BMP_temperature;BMP_pressure;BME280_temperature;BME280_humidity;BME280_pressure;Samples;Min_cycle;Max_cycle;Signal;HPM_P1;HPM_P2
2023/11/18 00:01:47;;;;;;;43.33;20.20;;;5.10;99.90;;;;;;5028977;28;20267;-53
2023/11/18 00:04:16;;;;;;;40.10;19.67;;;5.10;99.90;;;;;;5025306;28;20224;-54
2023/11/18 00:06:45;;;;;;;35.43;19.77;;;5.10;99.90;;;;;;5030121;28;20218;-53
2023/11/18 00:09:14;;;;;;;44.33;20.50;;;5.10;99.90;;;;;;5021298;28;20256;-54
2023/11/18 00:11:43;;;;;;;36.03;20.17;;;5.10;99.90;;;;;;5023646;28;20222;-53
2023/11/18 00:14:13;;;;;;;39.63;21.37;;;5.20;99.90;;;;;;5026219;28;20302;-55
2023/11/18 00:16:41;;;;;;;41.47;20.10;;;5.20;99.90;;;;;;5029494;28;20255;-55
2023/11/18 00:19:10;;;;;;;43.63;21.17;;;5.20;99.90;;;;;;5031599;28;20225;-55
2023/11/18 00:21:38;;;;;;;40.03;20.70;;;5.10;99.90;;;;;;5031121;28;20232;-54
2023/11/18 00:24:07;;;;;;;43.00;22.40;;;5.20;99.90;;;;;;5028729;28;20591;-53
2023/11/18 00:26:36;;;;;;;41.13;23.63;;;5.20;99.90;;;;;;5027379;28;20221;-54
2023/11/18 00:29:04;;;;;;;43.27;24.07;;;5.20;99.90;;;;;;5028534;28;20231;-54
2023/11/18 00:31:34;;;;;;;53.97;24.87;;;5.20;99.90;;;;;;5026879;28;20198;-54
2023/11/18 00:34:03;;;;;;;51.07;24.40;;;5.20;99.90;;;;;;5027357;28;20733;-53
2023/11/18 00:36:31;;;;;;;46.80;22.57;;;5.10;99.90;;;;;;5029805;28;20224;-53
2023/11/18 00:38:59;;;;;;;42.97;23.10;;;5.10;99.90;;;;;;5031016;28;20250;-54
2023/11/18 00:41:27;;;;;;;50.43;23.77;;;5.20;99.90;;;;;;5028989;28;20315;-54
2023/11/18 00:43:56;;;;;;;41.43;22.57;;;5.10;99.90;;;;;;5045974;28;20200;-54
2023/11/18 00:46:24;;;;;;;50.37;23.27;;;5.20;99.90;;;;;;5050742;28;20216;-54
2023/11/18 00:48:54;;;;;;;49.30;23.47;;;5.10;99.90;;;;;;5045139;28;20228;-54
2023/11/18 00:51:22;;;;;;;35.73;21.43;;;5.20;99.90;;;;;;5040580;28;20216;-54
2023/11/18 00:53:50;;;;;;;40.53;22.97;;;5.20;99.90;;;;;;5050256;28;20618;-55
2023/11/18 00:56:21;;;;;;;45.07;22.10;;;5.20;99.90;;;;;;5044173;28;20232;-51
2023/11/18 00:58:49;;;;;;;47.60;22.53;;;5.20;99.90;;;;;;5041185;28;20197;-52
2023/11/18 01:01:18;;;;;;;42.07;22.13;;;5.20;99.90;;;;;;5044874;28;20208;-54
2023/11/18 01:03:47;;;;;;;44.07;22.47;;;5.20;99.90;;;;;;5043528;28;20236;-53
2023/11/18 01:06:16;;;;;;;39.33;22.47;;;5.20;99.90;;;;;;5041877;28;20217;-54
2023/11/18 01:08:45;;;;;;;35.50;19.93;;;5.20;99.90;;;;;;5043577;28;20238;-54
2023/11/18 01:11:19;;;;;;;39.40;21.37;;;5.20;99.90;;;;;;5047857;28;20228;-52
2023/11/18 01:13:47;;;;;;;43.00;22.13;;;5.20;99.90;;;;;;5050784;28;20646;-53
2023/11/18 01:16:15;;;;;;;38.80;21.63;;;5.20;99.90;;;;;;5050883;28;20206;-51
2023/11/18 01:18:44;;;;;;;37.87;21.20;;;5.20;99.90;;;;;;5049207;28;20251;-55
2023/11/18 01:21:13;;;;;;;45.40;21.83;;;5.20;99.90;;;;;;5050616;28;20232;-55
2023/11/18 01:23:44;;;;;;;34.77;20.53;;;5.20;99.90;;;;;;5049536;28;20220;-52
2023/11/18 01:26:13;;;;;;;39.90;21.23;;;5.20;99.90;;;;;;5042007;28;20236;-53
2023/11/18 01:28:43;;;;;;;41.90;20.93;;;5.20;99.90;;;;;;5048775;28;20286;-54
2023/11/18 01:31:12;;;;;;;44.57;21.80;;;5.20;99.90;;;;;;5051593;28;20285;-54
2023/11/18 01:33:40;;;;;;;38.27;21.17;;;5.20;99.90;;;;;;5050945;28;20231;-53
2023/11/18 01:36:10;;;;;;;44.10;23.00;;;5.20;99.90;;;;;;5049491;28;20279;-52
2023/11/18 01:38:40;;;;;;;45.07;21.70;;;5.20;99.90;;;;;;5044465;28;20247;-51
2023/11/18 01:41:10;;;;;;;36.70;22.57;;;5.20;99.90;;;;;;5046733;28;20224;-54
2023/11/18 01:43:39;;;;;;;44.03;21.60;;;5.20;99.90;;;;;;5047100;28;20204;-54
2023/11/18 01:46:12;;;;;;;46.73;22.33;;;5.20;99.90;;;;;;5028137;28;20639;-54
2023/11/18 01:48:42;;;;;;;41.87;22.07;;;5.20;99.90;;;;;;5029916;28;20221;-54
2023/11/18 01:51:11;;;;;;;40.90;22.20;;;5.20;99.90;;;;;;5027011;28;20237;-53
2023/11/18 01:53:43;;;;;;;46.87;21.47;;;5.20;99.90;;;;;;5033736;28;20595;-53
2023/11/18 01:56:14;;;;;;;43.73;21.17;;;5.20;99.90;;;;;;5028787;28;20756;-54
2023/11/18 01:58:43;;;;;;;38.87;20.20;;;5.30;99.90;;;;;;5026306;28;20191;-54
2023/11/18 02:01:14;;;;;;;40.77;22.07;;;5.30;99.90;;;;;;5031532;28;20218;-55
2023/11/18 02:03:43;;;;;;;41.20;23.00;;;5.30;99.90;;;;;;5028358;28;20300;-53
2023/11/18 02:06:13;;;;;;;38.83;22.20;;;5.30;99.90;;;;;;5030194;28;20229;-51
2023/11/18 02:08:42;;;;;;;44.77;22.10;;;5.30;99.90;;;;;;5025379;28;20580;-54
2023/11/18 02:11:21;;;;;;;38.03;21.70;;;5.30;99.90;;;;;;5036212;28;20215;-52
2023/11/18 02:13:53;;;;;;;39.40;22.13;;;5.30;99.90;;;;;;5030057;28;20193;-55
2023/11/18 02:16:23;;;;;;;36.50;21.20;;;5.30;99.90;;;;;;5027133;28;20220;-55
2023/11/18 02:18:53;;;;;;;39.13;21.07;;;5.30;99.90;;;;;;5027889;28;20217;-54
2023/11/18 02:21:23;;;;;;;37.93;20.43;;;5.30;99.90;;;;;;5030940;28;20267;-54
2023/11/18 02:23:52;;;;;;;35.57;18.97;;;5.30;99.90;;;;;;5029226;28;20241;-53
2023/11/18 02:26:25;;;;;;;35.13;19.10;;;5.30;99.90;;;;;;5029721;28;20227;-54
2023/11/18 02:28:54;;;;;;;31.03;18.63;;;5.30;99.90;;;;;;5024269;28;20224;-54
2023/11/18 02:31:31;;;;;;;39.23;19.30;;;5.30;99.90;;;;;;5026590;28;20236;-52
2023/11/18 02:34:06;;;;;;;36.43;18.53;;;5.40;99.90;;;;;;5030867;28;20228;-55
2023/11/18 02:37:12;;;;;;;33.97;18.90;;;5.40;99.90;;;;;;5026804;28;20240;-53
2023/11/18 02:40:03;;;;;;;31.23;18.73;;;5.40;99.90;;;;;;5027720;28;21080;-54
2023/11/18 02:42:33;;;;;;;29.10;17.20;;;5.40;99.90;;;;;;5028577;28;20209;-53
2023/11/18 02:45:06;;;;;;;30.93;16.53;;;5.40;99.90;;;;;;5030155;28;20834;-54
2023/11/18 02:47:34;;;;;;;28.33;15.70;;;5.40;99.90;;;;;;5029610;28;20607;-50
2023/11/18 02:50:05;;;;;;;37.53;17.47;;;5.40;99.90;;;;;;5028896;28;20225;-52
2023/11/18 02:52:34;;;;;;;27.57;15.80;;;5.40;99.90;;;;;;5026703;28;20719;-52
2023/11/18 02:55:02;;;;;;;27.93;15.63;;;5.40;99.90;;;;;;5031732;28;20592;-52
2023/11/18 02:57:31;;;;;;;28.17;14.50;;;5.40;99.90;;;;;;5029943;28;20308;-54
2023/11/18 03:00:04;;;;;;;30.80;14.73;;;5.40;99.90;;;;;;5025228;28;20426;-54
2023/11/18 03:02:32;;;;;;;25.77;14.27;;;5.50;99.90;;;;;;5029166;28;20228;-54
2023/11/18 03:05:01;;;;;;;31.10;14.20;;;5.50;99.90;;;;;;5022832;28;20236;-53
2023/11/18 03:07:29;;;;;;;29.23;13.87;;;5.50;99.90;;;;;;5028921;28;20206;-53
2023/11/18 03:09:59;;;;;;;27.30;14.57;;;5.60;99.90;;;;;;5022987;28;20221;-55
2023/11/18 03:12:27;;;;;;;29.13;13.53;;;5.60;99.90;;;;;;5030977;28;20308;-53
2023/11/18 03:14:57;;;;;;;23.83;13.00;;;5.60;99.90;;;;;;5023207;28;20222;-54
2023/11/18 03:17:28;;;;;;;24.07;12.90;;;5.60;99.90;;;;;;5030338;28;20225;-53
2023/11/18 03:19:56;;;;;;;26.03;13.27;;;5.60;99.90;;;;;;5023794;28;20240;-55
2023/11/18 03:22:25;;;;;;;19.37;12.30;;;5.60;99.90;;;;;;5023043;28;20714;-55
2023/11/18 03:24:54;;;;;;;23.70;12.13;;;5.70;99.90;;;;;;5025511;28;20225;-55
2023/11/18 03:27:22;;;;;;;20.90;12.20;;;5.70;99.90;;;;;;5026744;28;20221;-55
2023/11/18 03:29:51;;;;;;;20.60;12.00;;;5.70;99.90;;;;;;5026781;28;20225;-55
2023/11/18 03:32:20;;;;;;;20.17;11.07;;;5.70;99.90;;;;;;5021779;28;20209;-54
2023/11/18 03:34:50;;;;;;;25.00;11.27;;;5.80;99.90;;;;;;5028525;28;20189;-53
2023/11/18 03:37:18;;;;;;;23.30;11.23;;;5.80;99.90;;;;;;5033703;28;20363;-54
2023/11/18 03:39:47;;;;;;;22.80;10.47;;;5.80;99.90;;;;;;5029573;28;20611;-55
2023/11/18 03:42:15;;;;;;;23.07;10.40;;;5.80;99.90;;;;;;5026432;28;20221;-50
2023/11/18 03:44:43;;;;;;;13.90;9.13;;;5.80;99.90;;;;;;5028554;28;20228;-53
2023/11/18 03:47:12;;;;;;;19.87;9.20;;;5.90;99.90;;;;;;5025547;28;20221;-52
2023/11/18 03:49:39;;;;;;;15.67;8.70;;;5.90;99.90;;;;;;5025041;28;20232;-52
2023/11/18 03:52:10;;;;;;;21.40;8.97;;;5.90;99.90;;;;;;5029124;28;20214;-54
2023/11/18 03:54:38;;;;;;;18.63;8.70;;;6.00;99.90;;;;;;5022411;28;20213;-54
2023/11/18 03:57:06;;;;;;;19.93;8.70;;;6.00;99.90;;;;;;5029325;28;20244;-54
2023/11/18 03:59:34;;;;;;;20.93;7.87;;;6.00;99.90;;;;;;5027375;28;20217;-53
2023/11/18 04:02:02;;;;;;;19.27;7.77;;;6.00;99.90;;;;;;5030210;28;20225;-53
2023/11/18 04:04:31;;;;;;;17.10;7.57;;;6.10;99.90;;;;;;5027532;28;20201;-52
2023/11/18 04:07:00;;;;;;;20.07;7.70;;;6.10;99.90;;;;;;5030259;28;20244;-54
2023/11/18 04:09:30;;;;;;;15.17;7.93;;;6.10;99.90;;;;;;5026265;28;20579;-52
2023/11/18 04:11:59;;;;;;;13.70;7.73;;;6.20;99.90;;;;;;5022853;28;20218;-54
2023/11/18 04:14:28;;;;;;;19.40;7.90;;;6.20;99.90;;;;;;5029993;28;20220;-50
2023/11/18 04:16:57;;;;;;;19.67;8.33;;;6.10;99.90;;;;;;5037178;28;20189;-55
2023/11/18 04:19:26;;;;;;;19.60;7.60;;;6.20;99.90;;;;;;5027494;28;20198;-53
2023/11/18 04:21:54;;;;;;;23.03;8.10;;;6.20;99.90;;;;;;5047997;28;20221;-54
2023/11/18 04:24:23;;;;;;;21.00;7.93;;;6.20;99.90;;;;;;5049456;28;20225;-52
2023/11/18 04:26:52;;;;;;;20.97;7.50;;;6.30;99.90;;;;;;5042353;28;20221;-51
2023/11/18 04:29:21;;;;;;;18.47;7.20;;;6.30;99.90;;;;;;5043848;28;20232;-50
2023/11/18 04:31:49;;;;;;;25.67;7.70;;;6.30;99.90;;;;;;5047562;28;20220;-53
2023/11/18 04:34:18;;;;;;;20.43;7.40;;;6.30;99.90;;;;;;5043527;28;20213;-54
2023/11/18 04:36:46;;;;;;;19.33;7.07;;;6.40;99.90;;;;;;5043434;28;20217;-52
2023/11/18 04:39:15;;;;;;;23.03;7.03;;;6.40;99.90;;;;;;5049678;28;20217;-54
2023/11/18 04:41:44;;;;;;;19.77;7.60;;;6.40;99.90;;;;;;5045271;28;20229;-53
2023/11/18 04:44:16;;;;;;;17.30;6.57;;;6.40;99.90;;;;;;5046785;28;20232;-54
2023/11/18 04:46:44;;;;;;;17.67;6.60;;;6.40;99.90;;;;;;5048111;28;20685;-52
2023/11/18 04:49:13;;;;;;;24.07;7.10;;;6.50;99.90;;;;;;5036792;28;20949;-53
2023/11/18 04:51:42;;;;;;;25.60;6.67;;;6.50;99.90;;;;;;5040790;28;20300;-52
2023/11/18 04:54:11;;;;;;;23.87;6.87;;;6.60;99.90;;;;;;5043038;28;20221;-53
2023/11/18 04:56:39;;;;;;;23.10;7.30;;;6.60;99.90;;;;;;5048299;28;20232;-53
2023/11/18 04:59:07;;;;;;;28.20;7.93;;;6.70;99.90;;;;;;5040763;28;20225;-53
2023/11/18 05:01:37;;;;;;;19.00;6.63;;;6.70;99.90;;;;;;5044688;28;20322;-52
2023/11/18 05:04:08;;;;;;;20.27;7.37;;;6.80;99.90;;;;;;5051707;28;20232;-50
2023/11/18 05:06:36;;;;;;;32.33;6.73;;;6.80;99.90;;;;;;5047238;28;20243;-52
2023/11/18 05:09:07;;;;;;;17.77;6.83;;;6.80;99.90;;;;;;5045540;28;20220;-52
2023/11/18 05:11:35;;;;;;;20.50;6.87;;;6.80;99.90;;;;;;5038622;28;20315;-55
2023/11/18 05:14:04;;;;;;;17.67;6.60;;;6.80;99.90;;;;;;5043471;28;20233;-55
2023/11/18 05:16:32;;;;;;;24.27;7.17;;;6.90;99.90;;;;;;5040754;28;20263;-54
2023/11/18 05:19:03;;;;;;;16.63;6.47;;;6.90;99.90;;;;;;5046263;28;20560;-53
2023/11/18 05:21:31;;;;;;;19.37;6.10;;;6.90;99.90;;;;;;5051168;28;20254;-54
2023/11/18 05:24:00;;;;;;;13.50;6.07;;;6.90;99.90;;;;;;5063471;28;20228;-55
2023/11/18 05:26:28;;;;;;;23.77;6.43;;;6.90;99.90;;;;;;5050459;28;20216;-53
2023/11/18 05:28:56;;;;;;;22.23;6.83;;;6.90;99.90;;;;;;5051747;28;20189;-53
2023/11/18 05:31:24;;;;;;;20.37;6.27;;;7.00;99.90;;;;;;5053259;28;20295;-54
2023/11/18 05:33:55;;;;;;;20.33;6.37;;;7.00;99.90;;;;;;5046120;28;20217;-54
2023/11/18 05:36:27;;;;;;;20.50;6.43;;;7.00;99.90;;;;;;5047290;28;20235;-54
2023/11/18 05:38:56;;;;;;;24.23;6.00;;;7.00;99.90;;;;;;5060061;28;20655;-50
2023/11/18 05:41:27;;;;;;;22.10;6.00;;;7.00;99.90;;;;;;5043718;28;20307;-53
2023/11/18 05:43:57;;;;;;;20.60;5.77;;;7.10;99.90;;;;;;5052904;28;20193;-52
2023/11/18 05:46:29;;;;;;;17.53;5.67;;;7.10;99.90;;;;;;5047671;28;20201;-54
2023/11/18 05:48:59;;;;;;;24.47;5.60;;;7.20;99.90;;;;;;5049231;28;20220;-52
2023/11/18 05:51:29;;;;;;;14.20;5.17;;;7.20;99.90;;;;;;5047218;28;20278;-52
2023/11/18 05:53:57;;;;;;;15.83;5.17;;;7.20;99.90;;;;;;5045631;28;20695;-51
2023/11/18 05:56:26;;;;;;;13.87;4.90;;;7.30;99.90;;;;;;5047499;28;20583;-55
2023/11/18 05:58:54;;;;;;;15.53;4.77;;;7.30;99.90;;;;;;5038723;28;20197;-55
2023/11/18 06:01:23;;;;;;;15.40;5.10;;;7.30;99.90;;;;;;5047939;28;20198;-53
2023/11/18 06:03:51;;;;;;;13.30;4.70;;;7.30;99.90;;;;;;5049526;28;20220;-55
2023/11/18 06:06:21;;;;;;;15.80;4.20;;;7.30;99.90;;;;;;5052225;28;20695;-54
2023/11/18 06:08:53;;;;;;;15.20;4.83;;;7.30;99.90;;;;;;5046055;28;20217;-54
2023/11/18 06:11:23;;;;;;;17.30;4.50;;;7.30;99.90;;;;;;5050704;28;20219;-55
2023/11/18 06:13:52;;;;;;;15.73;4.10;;;7.30;99.90;;;;;;5051919;28;20192;-56
2023/11/18 06:16:22;;;;;;;18.70;4.80;;;7.40;99.90;;;;;;5045994;28;20196;-55
2023/11/18 06:18:52;;;;;;;11.67;4.00;;;7.50;99.90;;;;;;5045625;28;20216;-55
2023/11/18 06:21:24;;;;;;;14.97;4.10;;;7.50;99.90;;;;;;5055909;28;20216;-54
2023/11/18 06:23:55;;;;;;;9.80;3.90;;;7.50;99.90;;;;;;5043101;28;20279;-55
2023/11/18 06:26:24;;;;;;;15.60;4.30;;;7.60;99.90;;;;;;5050527;28;20213;-54
2023/11/18 06:28:53;;;;;;;12.97;4.33;;;7.60;99.90;;;;;;5044562;28;20251;-54
2023/11/18 06:31:23;;;;;;;13.93;4.27;;;7.60;99.90;;;;;;5045743;28;20201;-54
2023/11/18 06:33:52;;;;;;;14.40;4.80;;;7.60;99.90;;;;;;5043058;28;20216;-55
2023/11/18 06:36:22;;;;;;;20.40;4.33;;;7.70;99.90;;;;;;5048679;28;20219;-52
2023/11/18 06:38:52;;;;;;;11.00;4.00;;;7.70;99.90;;;;;;5049088;28;20239;-53
2023/11/18 06:41:25;;;;;;;15.20;3.80;;;7.70;99.90;;;;;;5041702;28;20232;-54
2023/11/18 06:44:00;;;;;;;9.63;4.20;;;7.70;99.90;;;;;;5045413;28;20216;-54
2023/11/18 06:46:33;;;;;;;17.20;4.73;;;7.70;99.90;;;;;;5047296;28;20201;-54
2023/11/18 06:49:06;;;;;;;11.07;4.73;;;7.70;99.90;;;;;;5043374;28;20248;-53
2023/11/18 06:51:37;;;;;;;19.17;4.73;;;7.70;99.90;;;;;;5044684;28;20224;-51
2023/11/18 06:54:09;;;;;;;12.93;4.40;;;7.70;99.90;;;;;;5041133;28;20233;-54
2023/11/18 06:56:43;;;;;;;14.37;4.77;;;7.80;99.90;;;;;;5049380;28;20315;-54
2023/11/18 06:59:13;;;;;;;15.47;4.43;;;7.80;99.90;;;;;;5040469;28;20227;-52
2023/11/18 07:01:45;;;;;;;12.53;4.73;;;7.80;99.90;;;;;;5047070;28;20213;-51
2023/11/18 07:04:15;;;;;;;16.23;5.07;;;7.80;99.90;;;;;;5052461;28;20727;-52
2023/11/18 07:06:46;;;;;;;14.27;4.93;;;7.80;99.90;;;;;;5051625;28;20217;-55
2023/11/18 07:09:17;;;;;;;15.17;4.60;;;7.80;99.90;;;;;;5049641;28;20567;-54
2023/11/18 07:11:48;;;;;;;14.43;5.37;;;7.80;99.90;;;;;;5047450;28;20535;-52
2023/11/18 07:14:17;;;;;;;17.50;5.27;;;7.90;99.90;;;;;;5036449;28;20235;-51
2023/11/18 07:16:46;;;;;;;17.63;5.50;;;7.80;99.90;;;;;;5049091;28;20670;-55
2023/11/18 07:19:19;;;;;;;17.03;5.50;;;7.80;99.90;;;;;;5051964;28;20548;-52
2023/11/18 07:21:50;;;;;;;17.93;5.20;;;7.80;99.90;;;;;;5047193;28;20262;-53
2023/11/18 07:24:19;;;;;;;15.87;5.90;;;7.80;99.90;;;;;;5044539;28;20232;-55
2023/11/18 07:26:50;;;;;;;18.10;5.53;;;7.70;99.90;;;;;;5046344;28;20219;-56
2023/11/18 07:29:19;;;;;;;23.80;5.93;;;7.70;99.90;;;;;;5044895;28;20228;-55
2023/11/18 07:31:49;;;;;;;18.03;5.90;;;7.70;99.90;;;;;;5048268;28;20188;-55
2023/11/18 07:34:17;;;;;;;24.40;6.50;;;7.70;99.90;;;;;;5048533;28;20228;-54
2023/11/18 07:36:47;;;;;;;20.93;6.13;;;7.70;99.90;;;;;;5042000;28;20873;-54
2023/11/18 07:39:19;;;;;;;16.80;5.87;;;7.60;99.90;;;;;;5045575;28;20221;-54
2023/11/18 07:41:49;;;;;;;25.67;6.07;;;7.60;99.90;;;;;;5049983;28;20304;-54
2023/11/18 07:44:17;;;;;;;18.37;6.53;;;7.60;99.90;;;;;;5044967;28;20707;-54
2023/11/18 07:46:46;;;;;;;14.43;6.43;;;7.60;99.90;;;;;;5049499;28;20200;-52
2023/11/18 07:49:16;;;;;;;21.40;7.60;;;7.60;99.90;;;;;;5045064;28;20590;-53
2023/11/18 07:51:44;;;;;;;24.80;7.23;;;7.60;99.90;;;;;;5049909;28;20248;-52
2023/11/18 07:54:12;;;;;;;19.90;6.70;;;7.60;99.90;;;;;;5042515;28;20217;-58
2023/11/18 07:56:42;;;;;;;22.10;7.47;;;7.60;99.90;;;;;;5051579;28;20246;-54
2023/11/18 07:59:15;;;;;;;20.37;7.97;;;7.50;99.90;;;;;;5045711;28;20290;-52
2023/11/18 08:01:46;;;;;;;23.00;8.80;;;7.50;99.90;;;;;;5047374;28;20193;-53
2023/11/18 08:04:14;;;;;;;26.47;8.57;;;7.50;99.90;;;;;;5051408;28;20281;-50
2023/11/18 08:06:43;;;;;;;26.67;8.67;;;7.50;99.90;;;;;;5042383;28;20311;-51
2023/11/18 08:09:13;;;;;;;25.57;9.47;;;7.50;99.90;;;;;;5041023;28;20220;-54
2023/11/18 08:11:43;;;;;;;23.97;9.37;;;7.50;99.90;;;;;;5049268;28;20706;-56
2023/11/18 08:14:12;;;;;;;27.77;9.80;;;7.50;99.90;;;;;;5046008;28;20225;-52
2023/11/18 08:16:41;;;;;;;24.80;9.83;;;7.50;99.90;;;;;;5037056;28;20213;-54
2023/11/18 08:19:09;;;;;;;32.53;10.60;;;7.50;99.90;;;;;;5048645;28;20199;-54
2023/11/18 08:21:38;;;;;;;30.30;11.33;;;7.50;99.90;;;;;;5042020;28;20299;-55
2023/11/18 08:24:08;;;;;;;37.03;11.33;;;7.60;99.90;;;;;;5041239;28;20264;-54
2023/11/18 08:26:36;;;;;;;39.50;11.20;;;7.60;99.90;;;;;;5049363;28;20224;-52
2023/11/18 08:29:04;;;;;;;31.93;11.67;;;7.60;99.90;;;;;;5051132;28;20220;-52
2023/11/18 08:31:34;;;;;;;34.40;11.67;;;7.60;99.90;;;;;;5053263;28;20192;-53
2023/11/18 08:34:04;;;;;;;35.13;11.80;;;7.60;99.90;;;;;;5046466;28;20304;-53
2023/11/18 08:36:33;;;;;;;29.57;10.97;;;7.70;99.90;;;;;;5047560;28;20225;-54
2023/11/18 08:39:02;;;;;;;30.23;11.77;;;7.70;99.90;;;;;;5036298;28;20225;-52
2023/11/18 08:41:31;;;;;;;25.43;11.33;;;7.70;99.90;;;;;;5048042;28;20213;-54
2023/11/18 08:43:59;;;;;;;30.07;12.20;;;7.70;99.90;;;;;;5051139;28;20239;-53
2023/11/18 08:46:52;;;;;;;32.10;11.83;;;7.70;99.90;;;;;;5041421;28;20192;-53
2023/11/18 08:49:21;;;;;;;26.57;12.17;;;7.80;99.90;;;;;;5048162;28;20200;-51
2023/11/18 08:51:55;;;;;;;30.53;11.83;;;7.80;99.90;;;;;;5050056;28;20217;-54
2023/11/18 08:54:25;;;;;;;31.43;11.17;;;7.80;99.90;;;;;;5051947;28;20223;-54
2023/11/18 08:56:54;;;;;;;27.37;11.17;;;7.80;99.90;;;;;;5046016;28;20255;-53
2023/11/18 08:59:24;;;;;;;29.30;11.80;;;7.80;99.90;;;;;;5050802;28;20565;-53
2023/11/18 09:01:55;;;;;;;22.77;10.87;;;7.80;99.90;;;;;;5045635;28;20582;-56
2023/11/18 09:04:25;;;;;;;24.43;10.63;;;7.80;99.90;;;;;;5046266;28;20209;-52
2023/11/18 09:06:54;;;;;;;22.27;10.20;;;7.80;99.90;;;;;;5051680;28;20286;-52
2023/11/18 09:09:26;;;;;;;22.50;11.30;;;7.90;99.90;;;;;;5045681;28;20302;-53
2023/11/18 09:11:56;;;;;;;24.70;10.97;;;7.90;99.90;;;;;;5037472;28;20223;-52
2023/11/18 09:14:25;;;;;;;26.20;9.97;;;7.90;99.90;;;;;;5040863;28;20221;-53
2023/11/18 09:16:58;;;;;;;24.40;11.50;;;7.90;99.90;;;;;;5048964;28;20196;-55
2023/11/18 09:19:27;;;;;;;30.53;11.63;;;7.90;99.90;;;;;;5051906;28;20250;-55
2023/11/18 09:21:55;;;;;;;24.60;11.07;;;7.90;99.90;;;;;;5042962;28;20216;-55
2023/11/18 09:24:24;;;;;;;26.67;11.10;;;7.90;99.90;;;;;;5039384;28;20213;-52
2023/11/18 09:26:54;;;;;;;26.67;11.33;;;8.00;99.90;;;;;;5044057;28;20330;-56
2023/11/18 09:29:24;;;;;;;28.30;11.40;;;8.00;99.90;;;;;;5037560;28;20291;-54
2023/11/18 09:31:54;;;;;;;25.87;11.50;;;8.00;99.90;;;;;;5049909;28;20204;-55
2023/11/18 09:34:33;;;;;;;23.03;10.50;;;8.00;99.90;;;;;;5052407;28;20762;-53
2023/11/18 09:37:01;;;;;;;27.83;11.70;;;8.00;99.90;;;;;;5048934;28;20244;-50
2023/11/18 09:39:37;;;;;;;31.00;11.97;;;8.00;99.90;;;;;;5048444;28;20235;-53
2023/11/18 09:42:09;;;;;;;28.17;12.60;;;8.00;99.90;;;;;;5031840;28;20224;-54
2023/11/18 09:44:38;;;;;;;22.60;11.30;;;8.00;99.90;;;;;;5049993;28;20229;-54
2023/11/18 09:47:10;;;;;;;26.27;11.63;;;8.00;99.90;;;;;;5043131;28;20236;-56
2023/11/18 09:49:46;;;;;;;23.23;11.17;;;8.00;99.90;;;;;;5039168;28;20201;-53
2023/11/18 09:52:21;;;;;;;23.43;11.00;;;8.10;99.90;;;;;;5040620;28;20223;-54
2023/11/18 09:55:02;;;;;;;23.10;10.97;;;8.10;99.90;;;;;;5048553;28;20213;-54
2023/11/18 09:57:37;;;;;;;26.20;10.97;;;8.00;99.90;;;;;;5047629;28;20230;-54
2023/11/18 10:00:19;;;;;;;21.53;11.33;;;8.10;99.90;;;;;;5038578;28;20219;-55
2023/11/18 10:02:51;;;;;;;29.50;11.83;;;8.10;99.90;;;;;;5053191;28;20217;-54
2023/11/18 10:05:22;;;;;;;21.83;10.67;;;8.10;99.90;;;;;;5045602;28;20244;-50
2023/11/18 10:07:52;;;;;;;25.43;11.23;;;8.10;99.90;;;;;;5055528;28;20540;-54
2023/11/18 10:10:20;;;;;;;22.23;11.50;;;8.20;99.90;;;;;;5054074;28;20196;-50
2023/11/18 10:12:52;;;;;;;23.20;10.73;;;8.10;99.90;;;;;;5047400;28;20240;-51
2023/11/18 10:15:23;;;;;;;24.30;11.10;;;8.20;99.90;;;;;;5049130;28;20731;-51
2023/11/18 10:17:57;;;;;;;20.93;11.27;;;8.20;99.90;;;;;;5054965;28;20274;-51
2023/11/18 10:20:45;;;;;;;21.23;11.27;;;8.20;99.90;;;;;;5055470;28;20587;-56
2023/11/18 10:23:19;;;;;;;18.50;11.03;;;8.20;99.90;;;;;;5047167;28;20598;-54
2023/11/18 10:25:49;;;;;;;24.57;10.87;;;8.20;99.90;;;;;;5048323;28;20216;-54
2023/11/18 10:28:27;;;;;;;19.83;11.03;;;8.20;99.90;;;;;;5055742;28;20547;-53
2023/11/18 10:30:58;;;;;;;17.20;10.80;;;8.20;99.90;;;;;;5046801;28;20213;-50
2023/11/18 10:33:30;;;;;;;17.43;10.23;;;8.20;99.90;;;;;;5043258;28;20264;-52
2023/11/18 10:36:03;;;;;;;21.03;9.53;;;8.30;99.90;;;;;;5044036;28;20688;-55
2023/11/18 10:38:36;;;;;;;20.47;10.20;;;8.30;99.90;;;;;;5043631;28;20239;-51
2023/11/18 10:41:05;;;;;;;19.93;9.73;;;8.30;99.90;;;;;;5051342;28;20228;-53
2023/11/18 10:43:35;;;;;;;19.97;9.80;;;8.30;99.90;;;;;;5054983;28;20220;-53
2023/11/18 10:46:11;;;;;;;18.57;9.53;;;8.30;99.90;;;;;;5047025;28;20301;-50
2023/11/18 10:48:47;;;;;;;18.63;9.43;;;8.30;99.90;;;;;;5038344;28;20224;-54
2023/11/18 10:51:19;;;;;;;14.83;8.50;;;8.30;99.90;;;;;;5052631;28;20248;-53
2023/11/18 10:53:58;;;;;;;15.57;8.97;;;8.30;99.90;;;;;;5045457;28;20683;-52
2023/11/18 10:56:28;;;;;;;13.57;8.40;;;8.40;99.90;;;;;;5054613;28;20307;-55
2023/11/18 10:58:57;;;;;;;15.10;8.03;;;8.40;99.90;;;;;;5054148;28;20270;-56
2023/11/18 11:01:32;;;;;;;14.40;8.43;;;8.40;99.90;;;;;;5050438;28;20197;-55
2023/11/18 11:04:04;;;;;;;19.63;8.80;;;8.40;99.90;;;;;;5043297;28;20303;-56
2023/11/18 11:06:35;;;;;;;18.47;8.57;;;8.40;99.90;;;;;;5036386;28;20256;-52
2023/11/18 11:09:14;;;;;;;11.97;7.47;;;8.50;99.90;;;;;;5052852;28;20220;-54
2023/11/18 11:11:48;;;;;;;14.83;7.80;;;8.50;99.90;;;;;;5047251;28;20304;-54
2023/11/18 11:14:18;;;;;;;13.23;7.83;;;8.50;99.90;;;;;;5051744;28;20223;-55
2023/11/18 11:16:53;;;;;;;19.03;7.70;;;8.50;99.90;;;;;;5048461;28;20731;-57
2023/11/18 11:19:27;;;;;;;12.83;7.43;;;8.50;99.90;;;;;;5044945;28;20249;-57
2023/11/18 11:22:07;;;;;;;12.43;7.40;;;8.60;99.90;;;;;;5054081;28;20221;-54
2023/11/18 11:24:50;;;;;;;12.93;7.83;;;8.60;99.90;;;;;;5054100;28;20224;-54
2023/11/18 11:27:29;;;;;;;10.97;7.40;;;8.60;99.90;;;;;;5054083;28;20760;-53
2023/11/18 11:30:10;;;;;;;14.97;7.23;;;8.60;99.90;;;;;;5043575;28;20221;-53
2023/11/18 11:32:48;;;;;;;12.47;6.60;;;8.60;99.90;;;;;;5047086;28;20221;-54
2023/11/18 11:35:23;;;;;;;10.83;6.67;;;8.60;99.90;;;;;;5040959;28;20224;-55
2023/11/18 11:38:02;;;;;;;12.40;5.73;;;8.60;99.90;;;;;;5044770;28;20197;-53
2023/11/18 11:40:32;;;;;;;13.40;5.73;;;8.60;99.90;;;;;;5040610;28;20201;-53
2023/11/18 11:43:04;;;;;;;10.80;5.67;;;8.60;99.90;;;;;;5050128;28;20251;-54
2023/11/18 11:45:36;;;;;;;7.37;5.57;;;8.60;99.90;;;;;;5047474;28;20232;-54
2023/11/18 11:48:14;;;;;;;13.00;5.43;;;8.60;99.90;;;;;;5045206;28;20224;-51
2023/11/18 11:51:14;;;;;;;7.53;4.67;;;8.70;99.90;;;;;;5040597;28;21012;-53
2023/11/18 11:53:59;;;;;;;6.97;4.20;;;8.70;99.90;;;;;;5047247;28;20736;-51
2023/11/18 11:56:49;;;;;;;8.70;4.50;;;8.70;99.90;;;;;;5045648;28;20224;-53
2023/11/18 11:59:17;;;;;;;6.50;4.03;;;8.70;99.90;;;;;;5045320;28;20220;-55
2023/11/18 12:01:52;;;;;;;5.27;3.80;;;8.70;99.90;;;;;;5048947;28;20680;-53
2023/11/18 12:04:28;;;;;;;7.20;4.00;;;8.70;99.90;;;;;;5046601;28;20643;-54
2023/11/18 12:06:58;;;;;;;3.77;3.47;;;8.70;99.90;;;;;;5045263;28;20674;-55
2023/11/18 12:09:43;;;;;;;4.43;3.50;;;8.70;99.90;;;;;;5045897;28;20641;-53
2023/11/18 12:12:19;;;;;;;3.33;3.13;;;8.80;99.90;;;;;;5047612;28;20223;-53
2023/11/18 12:14:52;;;;;;;3.57;2.90;;;8.80;99.90;;;;;;5045611;28;21390;-55
2023/11/18 12:17:24;;;;;;;3.50;3.27;;;8.80;99.90;;;;;;5045996;28;20220;-51
2023/11/18 12:19:58;;;;;;;3.97;3.40;;;8.80;99.90;;;;;;5038512;28;20201;-51
2023/11/18 12:22:30;;;;;;;4.23;3.23;;;8.80;99.90;;;;;;5044157;28;20185;-53
2023/11/18 12:25:36;;;;;;;5.17;3.20;;;8.80;99.90;;;;;;5040713;28;20221;-53
2023/11/18 12:28:14;;;;;;;3.13;3.03;;;8.90;99.90;;;;;;5040627;28;20225;-55
2023/11/18 12:30:55;;;;;;;3.40;3.10;;;8.90;99.90;;;;;;5042371;28;20220;-50
2023/11/18 12:33:26;;;;;;;3.57;3.37;;;8.90;99.90;;;;;;5052517;28;20232;-53
2023/11/18 12:36:47;;;;;;;3.83;3.00;;;8.90;99.90;;;;;;5048585;28;20212;-52
2023/11/18 12:39:50;;;;;;;2.83;2.67;;;8.90;99.90;;;;;;5043074;28;20217;-54
2023/11/18 12:42:52;;;;;;;2.83;2.50;;;8.90;99.90;;;;;;5046444;28;20641;-52
2023/11/18 12:45:43;;;;;;;2.90;2.73;;;8.90;99.90;;;;;;5046606;28;20220;-53
2023/11/18 12:48:16;;;;;;;2.67;2.57;;;8.90;99.90;;;;;;5045885;28;20571;-56
2023/11/18 12:50:46;;;;;;;3.97;2.80;;;9.00;99.90;;;;;;5039972;28;20221;-55
2023/11/18 12:53:16;;;;;;;3.13;2.77;;;8.90;99.90;;;;;;5050913;28;20243;-55
2023/11/18 12:55:49;;;;;;;2.83;2.73;;;8.90;99.90;;;;;;5046221;28;20295;-55
2023/11/18 12:58:19;;;;;;;3.37;3.17;;;9.00;99.90;;;;;;5045824;28;20192;-54
2023/11/18 13:00:49;;;;;;;2.90;2.80;;;9.00;99.90;;;;;;5046190;28;20232;-54
2023/11/18 13:03:20;;;;;;;3.00;2.90;;;9.00;99.90;;;;;;5047891;28;20638;-55
2023/11/18 13:05:51;;;;;;;2.90;2.70;;;9.10;99.90;;;;;;5046715;28;20220;-53